createdAt,value
2023-04-24T00:01:04.625Z,2.40
2023-04-24T00:03:35.714Z,2.45
2023-04-24T00:06:04.585Z,2.38
2023-04-24T00:08:32.935Z,2.47
2023-04-24T00:11:02.346Z,2.38
2023-04-24T00:13:30.755Z,2.15
2023-04-24T00:15:59.981Z,2.20
2023-04-24T00:18:28.413Z,2.10
2023-04-24T00:20:58.994Z,1.90
2023-04-24T00:23:27.385Z,2.35
2023-04-24T00:25:55.763Z,2.40
2023-04-24T00:28:24.701Z,2.58
2023-04-24T00:30:53.144Z,1.92
2023-04-24T00:33:22.120Z,2.00
2023-04-24T00:35:50.907Z,2.72
2023-04-24T00:38:20.622Z,2.50
2023-04-24T00:40:51.296Z,1.92
2023-04-24T00:43:19.729Z,2.20
2023-04-24T00:45:48.724Z,1.67
2023-04-24T00:48:17.511Z,2.47
2023-04-24T00:50:48.106Z,2.35
2023-04-24T00:53:16.510Z,2.20
2023-04-24T00:55:47.332Z,2.05
2023-04-24T00:58:15.765Z,1.85
2023-04-24T01:00:46.512Z,1.73
2023-04-24T01:03:15.920Z,1.60
2023-04-24T01:05:44.636Z,1.80
2023-04-24T01:08:13.779Z,1.80
2023-04-24T01:10:43.356Z,1.90
2023-04-24T01:13:15.170Z,1.83
2023-04-24T01:15:46.987Z,1.90
2023-04-24T01:18:16.908Z,1.73
2023-04-24T01:20:47.875Z,1.60
2023-04-24T01:23:18.117Z,1.75
2023-04-24T01:25:47.073Z,1.42
2023-04-24T01:28:16.109Z,1.50
2023-04-24T01:30:47.783Z,1.77
2023-04-24T01:33:16.446Z,1.92
2023-04-24T01:35:45.956Z,2.05
2023-04-24T01:38:14.376Z,1.58
2023-04-24T01:40:44.530Z,1.90
2023-04-24T01:43:13.870Z,1.70
2023-04-24T01:45:44.021Z,1.70
2023-04-24T01:48:13.448Z,1.30
2023-04-24T01:50:43.098Z,1.65
2023-04-24T01:53:14.357Z,1.60
2023-04-24T01:55:44.182Z,1.60
2023-04-24T01:58:16.174Z,1.50
2023-04-24T02:00:44.576Z,1.40
2023-04-24T02:03:13.534Z,1.42
2023-04-24T02:05:43.557Z,1.88
2023-04-24T02:08:11.906Z,1.40
2023-04-24T02:10:41.405Z,1.80
2023-04-24T02:13:11.136Z,1.40
2023-04-24T02:15:40.007Z,1.52
2023-04-24T02:18:08.384Z,1.38
2023-04-24T02:20:37.654Z,1.52
2023-04-24T02:23:06.066Z,1.48
2023-04-24T02:25:36.665Z,1.65
2023-04-24T02:28:05.050Z,1.30
2023-04-24T02:30:37.813Z,1.23
2023-04-24T02:33:06.295Z,1.40
2023-04-24T02:35:35.997Z,1.40
2023-04-24T02:38:04.554Z,1.45
2023-04-24T02:40:33.160Z,1.27
2023-04-24T02:43:01.569Z,1.40
2023-04-24T02:45:31.609Z,1.58
2023-04-24T02:48:01.760Z,1.60
2023-04-24T02:50:30.351Z,1.60
2023-04-24T02:52:58.744Z,1.48
2023-04-24T02:55:27.160Z,1.15
2023-04-24T02:57:56.413Z,1.60
2023-04-24T03:00:25.119Z,1.40
2023-04-24T03:02:54.914Z,1.30
2023-04-24T03:05:26.137Z,1.30
2023-04-24T03:07:54.619Z,1.50
2023-04-24T03:10:24.796Z,1.52
2023-04-24T03:12:53.192Z,1.67
2023-04-24T03:15:23.099Z,1.55
2023-04-24T03:17:51.970Z,1.20
2023-04-24T03:20:20.956Z,1.10
2023-04-24T03:22:51.128Z,1.15
2023-04-24T03:25:21.056Z,1.20
2023-04-24T03:27:49.414Z,1.23
2023-04-24T03:30:30.304Z,0.93
2023-04-24T03:33:01.995Z,0.85
2023-04-24T03:35:34.119Z,1.13
2023-04-24T03:38:06.672Z,0.90
2023-04-24T03:40:44.773Z,1.05
2023-04-24T03:43:36.621Z,0.68
2023-04-24T03:46:07.528Z,1.00
2023-04-24T03:48:40.796Z,0.80
2023-04-24T03:51:10.823Z,0.75
2023-04-24T03:53:45.063Z,0.93
2023-04-24T03:56:16.465Z,0.90
2023-04-24T03:58:45.855Z,1.10
2023-04-24T04:01:16.933Z,0.93
2023-04-24T04:03:45.940Z,0.90
2023-04-24T04:06:16.336Z,0.98
2023-04-24T04:08:46.156Z,0.70
2023-04-24T04:11:15.708Z,0.80
2023-04-24T04:13:44.131Z,0.82
2023-04-24T04:16:14.917Z,0.70
2023-04-24T04:18:43.385Z,0.80
2023-04-24T04:21:13.043Z,0.93
2023-04-24T04:23:42.613Z,0.80
2023-04-24T04:26:27.020Z,0.80
2023-04-24T04:29:18.484Z,0.70
2023-04-24T04:31:50.004Z,0.82
2023-04-24T04:34:18.472Z,0.80
2023-04-24T04:36:48.604Z,0.90
2023-04-24T04:39:33.604Z,1.80
2023-04-24T04:42:07.734Z,0.70
2023-04-24T04:44:42.713Z,0.82
2023-04-24T04:47:17.749Z,0.90
2023-04-24T04:49:47.117Z,0.77
2023-04-24T04:52:21.814Z,0.88
2023-04-24T04:54:54.869Z,0.95
2023-04-24T04:57:27.419Z,0.70
2023-04-24T04:59:56.288Z,0.80
2023-04-24T05:02:38.544Z,0.90
2023-04-24T05:05:08.550Z,0.98
2023-04-24T05:07:37.363Z,1.13
2023-04-24T05:10:08.232Z,0.90
2023-04-24T05:12:38.220Z,0.98
2023-04-24T05:15:07.638Z,1.02
2023-04-24T05:17:37.146Z,0.95
2023-04-24T05:20:07.950Z,0.80
2023-04-24T05:22:37.244Z,0.80
2023-04-24T05:25:06.738Z,0.75
2023-04-24T05:27:45.583Z,0.95
2023-04-24T05:30:17.365Z,1.02
2023-04-24T05:32:46.053Z,1.38
2023-04-24T05:35:15.917Z,0.82
2023-04-24T05:37:44.381Z,0.90
2023-04-24T05:40:14.935Z,0.93
2023-04-24T05:42:45.854Z,1.00
2023-04-24T05:45:17.643Z,0.90
2023-04-24T05:47:46.360Z,1.00
2023-04-24T05:50:16.457Z,0.77
2023-04-24T05:52:45.350Z,1.00
2023-04-24T05:55:26.082Z,0.80
2023-04-24T05:57:56.962Z,0.80
2023-04-24T06:00:27.807Z,0.90
2023-04-24T06:03:05.281Z,0.80
2023-04-24T06:05:34.163Z,1.00
2023-04-24T06:08:04.914Z,1.15
2023-04-24T06:10:38.286Z,1.13
2023-04-24T06:13:09.822Z,0.95
2023-04-24T06:15:42.185Z,0.63
2023-04-24T06:18:18.726Z,0.90
2023-04-24T06:20:47.265Z,0.90
2023-04-24T06:23:15.666Z,0.90
2023-04-24T06:25:44.450Z,1.08
2023-04-24T06:28:15.389Z,1.17
2023-04-24T06:30:44.417Z,0.93
2023-04-24T06:35:48.239Z,1.10
2023-04-24T06:38:17.030Z,1.13
2023-04-24T06:40:45.949Z,0.85
2023-04-24T06:43:15.970Z,0.75
2023-04-24T06:45:45.558Z,0.80
2023-04-24T06:48:14.584Z,1.00
2023-04-24T06:50:43.003Z,1.27
2023-04-24T06:53:13.991Z,1.02
2023-04-24T06:55:44.151Z,0.70
2023-04-24T06:58:13.685Z,0.90
2023-04-24T07:00:43.903Z,0.75
2023-04-24T07:03:12.364Z,0.85
2023-04-24T07:05:41.253Z,1.27
2023-04-24T07:08:09.694Z,0.88
2023-04-24T07:10:38.885Z,0.95
2023-04-24T07:13:08.011Z,0.60
2023-04-24T07:15:36.862Z,0.70
2023-04-24T07:18:07.069Z,0.80
2023-04-24T07:20:35.636Z,0.80
2023-04-24T07:23:04.613Z,0.75
2023-04-24T07:25:33.460Z,0.88
2023-04-24T07:28:01.875Z,0.80
2023-04-24T07:30:31.521Z,1.23
2023-04-24T07:33:00.005Z,0.80
2023-04-24T07:35:30.826Z,0.90
2023-04-24T07:37:59.593Z,0.80
2023-04-24T07:40:28.804Z,0.70
2023-04-24T07:42:57.199Z,0.80
2023-04-24T07:45:27.630Z,0.90
2023-04-24T07:47:56.079Z,1.05
2023-04-24T07:50:25.051Z,0.98
2023-04-24T07:52:55.289Z,0.80
2023-04-24T07:55:25.735Z,0.70
2023-04-24T07:57:56.727Z,0.65
2023-04-24T08:00:25.102Z,0.73
2023-04-24T08:02:53.938Z,0.68
2023-04-24T08:05:22.587Z,0.70
2023-04-24T08:07:51.759Z,0.70
2023-04-24T08:10:21.478Z,0.80
2023-04-24T08:12:50.542Z,0.70
2023-04-24T08:15:19.213Z,0.85
2023-04-24T08:17:47.669Z,0.70
2023-04-24T08:20:16.509Z,0.68
2023-04-24T08:22:48.128Z,0.88
2023-04-24T08:25:16.836Z,0.65
2023-04-24T08:27:47.058Z,0.80
2023-04-24T08:30:15.706Z,0.70
2023-04-24T08:32:44.144Z,0.60
2023-04-24T08:35:12.999Z,0.80
2023-04-24T08:37:41.509Z,0.70
2023-04-24T08:40:15.740Z,0.90
2023-04-24T08:42:46.569Z,0.88
2023-04-24T08:45:15.606Z,1.23
2023-04-24T08:47:45.111Z,0.90
2023-04-24T08:50:14.261Z,1.83
2023-04-24T08:52:44.292Z,0.95
2023-04-24T08:55:12.897Z,1.13
2023-04-24T08:57:42.228Z,1.33
2023-04-24T09:00:13.457Z,0.90
2023-04-24T09:02:45.323Z,0.90
2023-04-24T09:05:15.977Z,1.00
2023-04-24T09:07:47.239Z,0.80
2023-04-24T09:10:16.724Z,0.82
2023-04-24T09:12:46.459Z,0.80
2023-04-24T09:15:17.493Z,0.80
2023-04-24T09:17:46.033Z,0.60
2023-04-24T09:20:14.473Z,0.90
2023-04-24T09:22:44.854Z,0.70
2023-04-24T09:25:13.732Z,0.90
2023-04-24T09:27:47.672Z,1.00
2023-04-24T09:30:24.008Z,0.73
2023-04-24T09:33:12.624Z,0.80
2023-04-24T09:35:42.961Z,0.80
2023-04-24T09:38:11.857Z,1.00
2023-04-24T09:40:42.513Z,1.00
2023-04-24T09:43:13.328Z,1.00
2023-04-24T09:45:43.691Z,1.23
2023-04-24T09:48:12.692Z,1.27
2023-04-24T09:50:41.221Z,1.00
2023-04-24T09:53:12.084Z,1.35
2023-04-24T09:55:42.021Z,1.30
2023-04-24T09:58:12.168Z,1.20
2023-04-24T10:00:41.356Z,1.10
2023-04-24T10:03:12.985Z,1.20
2023-04-24T10:05:42.086Z,1.50
2023-04-24T10:08:12.397Z,1.60
2023-04-24T10:10:42.670Z,1.30
2023-04-24T10:13:11.863Z,1.80
2023-04-24T10:15:42.372Z,1.30
2023-04-24T10:18:13.574Z,1.40
2023-04-24T10:20:42.969Z,1.30
2023-04-24T10:23:13.350Z,1.90
2023-04-24T10:25:42.425Z,1.40
2023-04-24T10:28:12.944Z,1.50
2023-04-24T10:30:44.720Z,1.45
2023-04-24T10:33:15.744Z,1.77
2023-04-24T10:35:48.801Z,1.80
2023-04-24T10:38:25.104Z,1.52
2023-04-24T10:40:53.476Z,1.50
2023-04-24T10:43:22.382Z,1.63
2023-04-24T10:46:04.557Z,1.50
2023-04-24T10:48:34.659Z,1.40
2023-04-24T10:51:03.643Z,1.60
2023-04-24T10:53:32.817Z,1.67
2023-04-24T10:56:06.960Z,1.77
2023-04-24T10:58:41.235Z,1.90
2023-04-24T11:01:10.426Z,1.70
2023-04-24T11:03:43.091Z,1.67
2023-04-24T11:06:11.682Z,1.75
2023-04-24T11:08:41.531Z,1.60
2023-04-24T11:11:14.536Z,1.45
2023-04-24T11:14:08.438Z,1.50
2023-04-24T11:16:40.775Z,1.63
2023-04-24T11:19:12.261Z,1.60
2023-04-24T11:21:46.116Z,1.45
2023-04-24T11:24:33.218Z,1.38
2023-04-24T11:27:08.902Z,1.40
2023-04-24T11:29:42.048Z,1.52
2023-04-24T11:32:21.947Z,1.63
2023-04-24T11:34:53.520Z,1.48
2023-04-24T11:37:21.897Z,1.00
2023-04-24T11:39:54.084Z,1.30
2023-04-24T11:42:24.250Z,1.30
2023-04-24T11:44:55.293Z,0.90
2023-04-24T11:47:30.989Z,0.82
2023-04-24T11:50:02.625Z,1.00
2023-04-24T11:52:32.369Z,0.85
2023-04-24T11:55:01.840Z,1.20
2023-04-24T11:57:35.029Z,0.98
2023-04-24T12:00:04.567Z,1.27
2023-04-24T12:02:41.332Z,1.10
2023-04-24T12:05:12.996Z,1.05
2023-04-24T12:07:45.182Z,1.20
2023-04-24T12:10:13.633Z,1.17
2023-04-24T12:12:42.034Z,1.70
2023-04-24T12:15:13.467Z,1.20
2023-04-24T12:17:44.334Z,1.38
2023-04-24T12:20:16.438Z,1.15
2023-04-24T12:22:47.178Z,1.40
2023-04-24T12:25:16.816Z,1.15
2023-04-24T12:27:46.278Z,1.25
2023-04-24T12:30:17.937Z,1.48
2023-04-24T12:32:49.465Z,1.40
2023-04-24T12:35:23.394Z,1.30
2023-04-24T12:37:53.437Z,1.40
2023-04-24T12:40:23.284Z,1.40
2023-04-24T12:42:54.390Z,1.30
2023-04-24T12:45:26.272Z,1.50
2023-04-24T12:47:55.743Z,1.30
2023-04-24T12:50:26.146Z,1.75
2023-04-24T12:52:54.533Z,1.60
2023-04-24T12:55:23.349Z,1.50
2023-04-24T12:57:51.721Z,1.60
2023-04-24T13:00:21.394Z,1.65
2023-04-24T13:02:50.639Z,1.42
2023-04-24T13:05:19.368Z,1.50
2023-04-24T13:07:49.567Z,1.38
2023-04-24T13:10:18.113Z,1.50
2023-04-24T13:12:47.842Z,1.35
2023-04-24T13:15:16.301Z,1.50
2023-04-24T13:17:45.684Z,1.20
2023-04-24T13:20:14.524Z,1.55
2023-04-24T13:22:43.517Z,1.30
2023-04-24T13:25:13.410Z,1.15
2023-04-24T13:27:41.907Z,1.15
2023-04-24T13:30:11.584Z,1.17
2023-04-24T13:32:40.722Z,0.80
2023-04-24T13:35:10.502Z,1.00
2023-04-24T13:37:38.912Z,0.80
2023-04-24T13:40:09.419Z,1.00
2023-04-24T13:42:39.195Z,0.70
2023-04-24T13:45:17.816Z,0.80
2023-04-24T13:47:54.516Z,0.95
2023-04-24T13:50:24.035Z,0.88
2023-04-24T13:52:52.805Z,1.20
2023-04-24T13:55:21.326Z,1.05
2023-04-24T13:57:51.447Z,1.10
2023-04-24T14:00:20.816Z,1.05
2023-04-24T14:02:49.773Z,1.00
2023-04-24T14:05:19.344Z,1.02
2023-04-24T14:07:47.757Z,0.80
2023-04-24T14:10:16.460Z,0.80
2023-04-24T14:12:45.400Z,0.80
2023-04-24T14:15:15.641Z,1.00
2023-04-24T14:17:44.486Z,0.90
2023-04-24T14:20:14.594Z,1.27
2023-04-24T14:22:43.824Z,0.98
2023-04-24T14:25:12.196Z,1.00
2023-04-24T14:27:41.185Z,0.80
2023-04-24T14:30:10.583Z,0.80
2023-04-24T14:32:41.731Z,0.95
2023-04-24T14:35:10.656Z,0.90
2023-04-24T14:37:42.603Z,0.80
2023-04-24T14:40:33.728Z,1.00
2023-04-24T14:43:01.605Z,1.02
2023-04-24T14:45:30.548Z,1.00
2023-04-24T14:48:00.806Z,1.00
2023-04-24T14:50:29.717Z,1.15
2023-04-24T14:52:59.801Z,0.80
2023-04-24T14:55:28.268Z,0.85
2023-04-24T14:57:57.332Z,0.70
2023-04-24T15:00:26.025Z,0.90
2023-04-24T15:02:54.636Z,1.00
2023-04-24T15:05:25.825Z,1.00
2023-04-24T15:07:54.844Z,0.88
2023-04-24T15:10:23.997Z,1.00
2023-04-24T15:12:52.496Z,1.00
2023-04-24T15:15:21.374Z,1.13
2023-04-24T15:17:49.835Z,1.00
2023-04-24T15:20:19.395Z,1.00
2023-04-24T15:22:49.256Z,1.30
2023-04-24T15:25:18.762Z,1.05
2023-04-24T15:27:47.970Z,1.10
2023-04-24T15:30:16.887Z,1.00
2023-04-24T15:32:46.197Z,0.90
2023-04-24T15:35:15.092Z,1.10
2023-04-24T15:37:43.877Z,0.98
2023-04-24T15:40:16.711Z,1.13
2023-04-24T15:42:46.143Z,1.00
2023-04-24T15:45:14.492Z,0.82
2023-04-24T15:47:43.716Z,1.42
2023-04-24T15:50:14.322Z,0.90
2023-04-24T15:52:44.367Z,0.88
2023-04-24T15:55:14.698Z,0.70
2023-04-24T15:57:44.578Z,0.70
2023-04-24T16:00:13.950Z,0.77
2023-04-24T16:02:43.009Z,0.70
2023-04-24T16:05:12.210Z,1.00
2023-04-24T16:07:41.492Z,0.90
2023-04-24T16:10:11.149Z,0.85
2023-04-24T16:12:40.952Z,0.75
2023-04-24T16:15:10.473Z,0.80
2023-04-24T16:17:39.034Z,1.00
2023-04-24T16:20:09.158Z,0.80
2023-04-24T16:22:37.953Z,0.90
2023-04-24T16:25:07.442Z,1.00
2023-04-24T16:27:36.300Z,0.68
2023-04-24T16:30:07.743Z,0.90
2023-04-24T16:32:36.232Z,1.13
2023-04-24T16:35:05.463Z,1.08
2023-04-24T16:37:33.850Z,0.80
2023-04-24T16:40:04.285Z,0.93
2023-04-24T16:42:32.745Z,0.90
2023-04-24T16:45:01.630Z,0.95
2023-04-24T16:47:31.421Z,0.98
2023-04-24T16:50:00.780Z,0.90
2023-04-24T16:52:29.496Z,0.80
2023-04-24T16:54:57.836Z,1.08
2023-04-24T16:57:26.833Z,0.70
2023-04-24T16:59:55.534Z,0.50
2023-04-24T17:02:24.099Z,0.80
2023-04-24T17:04:55.183Z,0.65
2023-04-24T17:07:24.295Z,0.90
2023-04-24T17:09:53.796Z,0.90
2023-04-24T17:12:22.699Z,0.80
2023-04-24T17:14:52.402Z,1.00
2023-04-24T17:17:23.139Z,0.80
2023-04-24T17:19:54.674Z,0.88
2023-04-24T17:22:24.462Z,0.73
2023-04-24T17:24:53.695Z,1.45
2023-04-24T17:27:22.087Z,0.95
2023-04-24T17:29:52.294Z,1.10
2023-04-24T17:32:20.769Z,1.00
2023-04-24T17:34:50.451Z,1.20
2023-04-24T17:37:23.174Z,1.15
2023-04-24T17:39:52.243Z,0.98
2023-04-24T17:42:20.648Z,1.20
2023-04-24T17:44:49.126Z,1.00
2023-04-24T17:47:17.978Z,1.10
2023-04-24T17:49:46.411Z,0.75
2023-04-24T17:52:17.622Z,0.90
2023-04-24T17:54:49.633Z,0.70
2023-04-24T17:57:18.606Z,1.00
2023-04-24T17:59:47.191Z,0.82
2023-04-24T18:02:16.152Z,1.05
2023-04-24T18:04:45.238Z,0.82
2023-04-24T18:07:13.710Z,0.70
2023-04-24T18:09:42.763Z,0.80
2023-04-24T18:12:12.520Z,0.90
2023-04-24T18:14:41.755Z,0.80
2023-04-24T18:17:10.119Z,0.90
2023-04-24T18:19:38.541Z,0.90
2023-04-24T18:22:06.990Z,0.80
2023-04-24T18:24:36.041Z,0.98
2023-04-24T18:27:05.038Z,0.80
2023-04-24T18:29:35.353Z,1.20
2023-04-24T18:32:05.367Z,1.00
2023-04-24T18:34:34.779Z,1.02
2023-04-24T18:37:03.217Z,1.00
2023-04-24T18:39:32.833Z,1.00
2023-04-24T18:42:01.806Z,1.17
2023-04-24T18:44:30.813Z,1.10
2023-04-24T18:47:00.701Z,1.13
2023-04-24T18:49:29.982Z,1.30
2023-04-24T18:51:59.869Z,1.25
2023-04-24T18:54:30.073Z,1.05
2023-04-24T18:56:59.553Z,1.65
2023-04-24T18:59:28.069Z,1.40
2023-04-24T19:01:57.777Z,1.10
2023-04-24T19:04:28.821Z,1.30
2023-04-24T19:06:57.259Z,1.13
2023-04-24T19:09:26.596Z,1.20
2023-04-24T19:11:55.048Z,1.25
2023-04-24T19:14:24.217Z,1.77
2023-04-24T19:16:52.730Z,1.33
2023-04-24T19:19:24.615Z,1.30
2023-04-24T19:21:54.984Z,1.60
2023-04-24T19:24:23.587Z,1.20
2023-04-24T19:26:52.291Z,1.33
2023-04-24T19:29:20.639Z,1.42
2023-04-24T19:31:49.538Z,1.23
2023-04-24T19:34:18.372Z,2.40
2023-04-24T19:36:47.629Z,10.00
2023-04-24T19:39:17.458Z,4.05
2023-04-24T19:41:46.067Z,3.17
2023-04-24T19:44:16.044Z,2.10
2023-04-24T19:46:44.560Z,1.67
2023-04-24T19:49:15.558Z,1.85
2023-04-24T19:51:43.932Z,1.58
2023-04-24T19:54:13.608Z,1.60
2023-04-24T19:56:43.782Z,1.55
2023-04-24T19:59:12.167Z,1.75
2023-04-24T20:01:42.106Z,1.85
2023-04-24T20:04:11.916Z,1.65
2023-04-24T20:06:41.531Z,1.95
2023-04-24T20:09:10.360Z,2.17
2023-04-24T20:11:38.938Z,2.17
2023-04-24T20:14:08.698Z,2.10
2023-04-24T20:16:39.229Z,2.15
2023-04-24T20:19:08.530Z,2.38
2023-04-24T20:21:37.567Z,2.00
2023-04-24T20:24:09.100Z,2.30
2023-04-24T20:26:37.593Z,2.05
2023-04-24T20:29:09.165Z,1.83
2023-04-24T20:31:38.349Z,1.90
2023-04-24T20:34:07.342Z,2.38
2023-04-24T20:36:35.719Z,2.88
2023-04-24T20:39:06.986Z,3.10
2023-04-24T20:41:35.975Z,2.38
2023-04-24T20:44:05.106Z,2.15
2023-04-24T20:46:35.093Z,2.10
2023-04-24T20:49:05.279Z,1.80
2023-04-24T20:51:34.163Z,1.92
2023-04-24T20:54:03.888Z,1.90
2023-04-24T20:56:32.361Z,2.42
2023-04-24T20:59:01.642Z,2.53
2023-04-24T21:01:31.358Z,1.80
2023-04-24T21:04:01.238Z,2.20
2023-04-24T21:06:33.291Z,2.55
2023-04-24T21:09:01.707Z,3.17
2023-04-24T21:11:30.963Z,2.80
2023-04-24T21:13:59.419Z,2.80
2023-04-24T21:16:29.432Z,2.13
2023-04-24T21:18:58.396Z,2.50
2023-04-24T21:21:28.177Z,2.30
2023-04-24T21:23:58.031Z,1.80
2023-04-24T21:26:26.458Z,2.38
2023-04-24T21:28:55.924Z,2.20
2023-04-24T21:31:24.323Z,2.00
2023-04-24T21:33:54.271Z,2.25
2023-04-24T21:36:23.127Z,2.22
2023-04-24T21:38:52.817Z,2.30
2023-04-24T21:41:22.094Z,2.17
2023-04-24T21:43:50.923Z,2.20
2023-04-24T21:46:20.483Z,2.17
2023-04-24T21:48:48.889Z,2.15
2023-04-24T21:51:18.479Z,3.03
2023-04-24T21:53:47.121Z,3.25
2023-04-24T21:56:17.567Z,2.75
2023-04-24T21:58:46.922Z,2.50
2023-04-24T22:01:17.719Z,2.65
2023-04-24T22:03:46.384Z,2.60
2023-04-24T22:06:16.269Z,2.42
2023-04-24T22:08:47.623Z,2.65
2023-04-24T22:11:26.645Z,2.47
2023-04-24T22:13:56.566Z,2.33
2023-04-24T22:16:26.444Z,2.53
2023-04-24T22:18:56.177Z,2.30
2023-04-24T22:21:24.654Z,2.50
2023-04-24T22:23:53.533Z,2.08
2023-04-24T22:26:23.368Z,2.63
2023-04-24T22:28:52.178Z,2.20
2023-04-24T22:31:20.768Z,2.58
2023-04-24T22:33:50.073Z,2.95
2023-04-24T22:36:18.776Z,2.42
2023-04-24T22:38:48.174Z,2.53
2023-04-24T22:41:17.849Z,2.28
2023-04-24T22:43:48.023Z,2.10
2023-04-24T22:46:17.844Z,2.47
2023-04-24T22:48:48.113Z,2.53
2023-04-24T22:51:18.252Z,1.98
2023-04-24T22:53:49.434Z,2.33
2023-04-24T22:56:19.286Z,2.47
2023-04-24T22:58:49.060Z,2.25
2023-04-24T23:01:18.667Z,2.17
2023-04-24T23:03:47.209Z,2.22
2023-04-24T23:06:16.217Z,2.20
2023-04-24T23:08:47.347Z,2.30
2023-04-24T23:11:16.214Z,2.75
2023-04-24T23:13:45.181Z,3.05
2023-04-24T23:16:14.901Z,4.63
2023-04-24T23:18:44.388Z,3.47
2023-04-24T23:21:12.791Z,3.25
2023-04-24T23:23:42.068Z,7.53
2023-04-24T23:26:10.412Z,9.65
2023-04-24T23:28:40.915Z,3.72
2023-04-24T23:31:09.618Z,2.60
2023-04-24T23:33:39.824Z,2.50
2023-04-24T23:36:08.456Z,2.33
2023-04-24T23:38:49.115Z,2.80
2023-04-24T23:41:18.888Z,2.10
2023-04-24T23:43:47.571Z,2.47
2023-04-24T23:46:16.395Z,3.03
2023-04-24T23:48:46.361Z,3.08
2023-04-24T23:51:15.245Z,2.83
2023-04-24T23:53:43.625Z,2.92
2023-04-24T23:56:12.820Z,2.50
2023-04-24T23:58:41.267Z,2.30
